createdAt,value
2024-01-28T00:01:00.707Z,21.26
2024-01-28T00:06:02.218Z,21.30
2024-01-28T00:11:03.611Z,21.54
2024-01-28T00:16:05.054Z,21.49
2024-01-28T00:21:06.427Z,21.63
2024-01-28T00:26:08.299Z,21.80
2024-01-28T00:31:11.007Z,21.68
2024-01-28T00:36:16.656Z,21.83
2024-01-28T00:41:24.075Z,21.74
2024-01-28T00:46:25.453Z,21.83
2024-01-28T00:51:26.807Z,21.55
2024-01-28T00:56:28.186Z,21.73
2024-01-28T01:01:29.616Z,21.79
2024-01-28T01:06:31.051Z,21.71
2024-01-28T01:11:32.425Z,21.82
2024-01-28T01:16:33.717Z,21.70
2024-01-28T01:21:35.070Z,21.35
2024-01-28T01:26:36.519Z,21.35
2024-01-28T01:31:37.866Z,21.62
2024-01-28T01:36:42.735Z,21.74
2024-01-28T01:41:44.811Z,21.89
2024-01-28T01:46:46.444Z,21.58
2024-01-28T01:51:47.788Z,21.29
2024-01-28T01:56:49.104Z,20.91
2024-01-28T02:01:50.450Z,21.07
2024-01-28T02:06:51.749Z,20.75
2024-01-28T02:11:53.048Z,20.94
2024-01-28T02:16:54.402Z,21.19
2024-01-28T02:21:55.768Z,21.26
2024-01-28T02:26:57.154Z,21.37
2024-01-28T02:31:58.474Z,21.43
2024-01-28T02:36:59.772Z,21.19
2024-01-28T02:42:01.129Z,21.27
2024-01-28T02:47:02.727Z,21.32
2024-01-28T02:52:04.070Z,21.23
2024-01-28T02:57:05.550Z,21.02
2024-01-28T03:02:07.089Z,21.17
2024-01-28T03:07:08.450Z,21.06
2024-01-28T03:12:09.836Z,21.25
2024-01-28T03:17:11.145Z,20.97
2024-01-28T03:22:12.444Z,20.85
2024-01-28T03:27:14.125Z,20.84
2024-01-28T03:32:15.492Z,20.88
2024-01-28T03:37:16.784Z,20.82
2024-01-28T03:42:18.545Z,20.88
2024-01-28T03:47:20.400Z,20.97
2024-01-28T03:52:21.829Z,20.87
2024-01-28T03:57:23.229Z,20.54
2024-01-28T04:02:24.699Z,20.61
2024-01-28T04:07:26.185Z,20.50
2024-01-28T04:12:27.701Z,20.51
2024-01-28T04:17:29.225Z,20.63
2024-01-28T04:22:31.013Z,20.84
2024-01-28T04:27:32.350Z,20.52
2024-01-28T04:32:33.718Z,20.59
2024-01-28T04:37:35.039Z,20.88
2024-01-28T04:42:36.761Z,20.57
2024-01-28T04:47:38.975Z,20.62
2024-01-28T04:52:40.307Z,20.74
2024-01-28T04:57:41.652Z,20.50
2024-01-28T05:02:42.963Z,20.51
2024-01-28T05:07:44.356Z,20.46
2024-01-28T05:12:49.331Z,20.47
2024-01-28T05:17:51.191Z,20.30
2024-01-28T05:22:52.763Z,20.00
2024-01-28T05:27:55.016Z,19.92
2024-01-28T05:32:56.345Z,19.85
2024-01-28T05:37:57.649Z,20.01
2024-01-28T05:42:59.017Z,20.08
2024-01-28T05:48:03.071Z,20.33
2024-01-28T05:53:04.803Z,20.33
2024-01-28T05:58:06.130Z,20.06
2024-01-28T06:03:07.635Z,19.89
2024-01-28T06:08:09.095Z,19.80
2024-01-28T06:13:10.477Z,20.23
2024-01-28T06:18:11.887Z,20.34
2024-01-28T06:23:13.194Z,20.29
2024-01-28T06:28:15.221Z,19.96
2024-01-28T06:33:16.799Z,20.14
2024-01-28T06:38:19.765Z,19.98
2024-01-28T06:43:21.081Z,20.24
2024-01-28T06:48:22.620Z,19.77
2024-01-28T06:53:23.986Z,19.91
2024-01-28T06:58:25.264Z,19.97
2024-01-28T07:03:26.728Z,20.24
2024-01-28T07:08:28.149Z,20.27
2024-01-28T07:13:29.514Z,20.26
2024-01-28T07:18:30.875Z,20.18
2024-01-28T07:23:32.311Z,19.90
2024-01-28T07:28:35.126Z,19.61
2024-01-28T07:33:36.587Z,19.62
2024-01-28T07:38:37.998Z,19.58
2024-01-28T07:43:39.325Z,20.08
2024-01-28T07:48:40.904Z,20.33
2024-01-28T07:53:44.923Z,20.37
2024-01-28T07:58:48.465Z,20.03
2024-01-28T08:03:50.828Z,19.87
2024-01-28T08:08:52.433Z,19.80
2024-01-28T08:13:53.877Z,19.87
2024-01-28T08:18:55.553Z,20.21
2024-01-28T08:23:56.935Z,20.29
2024-01-28T08:28:58.408Z,20.15
2024-01-28T08:34:01.789Z,20.36
2024-01-28T08:39:05.968Z,20.12
2024-01-28T08:44:08.027Z,20.20
2024-01-28T08:49:09.439Z,20.15
2024-01-28T08:54:12.375Z,20.31
2024-01-28T08:59:13.738Z,20.44
2024-01-28T09:04:15.167Z,20.60
2024-01-28T09:09:18.029Z,20.61
2024-01-28T09:14:19.399Z,20.36
2024-01-28T09:19:20.749Z,20.63
2024-01-28T09:24:22.119Z,20.54
2024-01-28T09:29:23.562Z,20.64
2024-01-28T09:34:24.936Z,20.94
2024-01-28T09:39:26.397Z,20.88
2024-01-28T09:44:30.480Z,21.05
2024-01-28T09:49:32.319Z,20.91
2024-01-28T09:54:33.808Z,20.94
2024-01-28T09:59:36.360Z,21.27
2024-01-28T10:04:38.620Z,21.49
2024-01-28T10:09:40.139Z,21.54
2024-01-28T10:14:49.673Z,21.21
2024-01-28T10:19:51.219Z,21.17
2024-01-28T10:24:52.723Z,21.58
2024-01-28T10:29:54.090Z,21.81
2024-01-28T10:34:55.496Z,21.79
2024-01-28T10:39:57.241Z,21.70
2024-01-28T10:45:00.907Z,21.92
2024-01-28T10:50:04.148Z,22.14
2024-01-28T10:55:05.840Z,21.88
2024-01-28T11:00:07.346Z,21.86
2024-01-28T11:05:08.748Z,21.82
2024-01-28T11:10:10.315Z,22.06
2024-01-28T11:15:12.953Z,21.88
2024-01-28T11:20:18.321Z,22.06
2024-01-28T11:25:30.054Z,21.98
2024-01-28T11:30:31.750Z,22.17
2024-01-28T11:35:33.724Z,22.06
2024-01-28T11:40:36.254Z,21.97
2024-01-28T11:45:37.943Z,21.89
2024-01-28T11:50:44.288Z,22.03
2024-01-28T11:55:45.572Z,22.04
2024-01-28T12:00:46.978Z,21.76
2024-01-28T12:05:48.381Z,21.55
2024-01-28T12:10:55.968Z,21.50
2024-01-28T12:15:59.349Z,21.26
2024-01-28T12:21:00.955Z,21.28
2024-01-28T12:26:02.268Z,21.16
2024-01-28T12:31:03.666Z,20.80
2024-01-28T12:36:05.120Z,20.53
2024-01-28T12:41:06.712Z,20.42
2024-01-28T12:46:08.766Z,20.36
2024-01-28T12:51:10.210Z,20.35
2024-01-28T12:56:11.622Z,20.06
2024-01-28T13:01:13.029Z,20.08
2024-01-28T13:06:14.437Z,20.25
2024-01-28T13:11:16.024Z,20.07
2024-01-28T13:16:17.830Z,20.00
2024-01-28T13:21:19.224Z,20.17
2024-01-28T13:26:21.824Z,19.86
2024-01-28T13:31:23.110Z,20.06
2024-01-28T13:36:24.637Z,20.01
2024-01-28T13:41:26.092Z,20.06
2024-01-28T13:46:27.439Z,19.99
2024-01-28T13:51:28.745Z,19.98
2024-01-28T13:56:30.106Z,19.90
2024-01-28T14:01:31.454Z,19.96
2024-01-28T14:06:33.031Z,19.82
2024-01-28T14:11:37.631Z,19.82
2024-01-28T14:16:39.206Z,19.66
2024-01-28T14:21:40.557Z,19.64
2024-01-28T14:26:41.859Z,19.71
2024-01-28T14:31:43.308Z,19.71
2024-01-28T14:36:44.696Z,19.82
2024-01-28T14:41:47.614Z,19.99
2024-01-28T14:46:50.082Z,19.75
2024-01-28T14:51:52.094Z,19.85
2024-01-28T14:56:54.171Z,19.88
2024-01-28T15:01:55.483Z,19.93
2024-01-28T15:06:56.846Z,20.11
2024-01-28T15:11:58.155Z,20.08
2024-01-28T15:16:59.452Z,20.10
2024-01-28T15:22:00.780Z,20.05
2024-01-28T15:27:02.118Z,19.88
2024-01-28T15:32:03.635Z,19.91
2024-01-28T15:37:05.036Z,19.80
2024-01-28T15:42:06.703Z,19.89
2024-01-28T15:47:08.103Z,20.05
2024-01-28T15:52:09.510Z,20.03
2024-01-28T15:57:10.830Z,19.78
2024-01-28T16:02:14.640Z,19.71
2024-01-28T16:07:16.211Z,19.71
2024-01-28T16:12:17.585Z,19.83
2024-01-28T16:17:24.110Z,19.80
2024-01-28T16:22:25.509Z,20.01
2024-01-28T16:27:26.863Z,20.08
2024-01-28T16:32:28.193Z,19.98
2024-01-28T16:37:29.542Z,20.12
2024-01-28T16:42:30.948Z,20.11
2024-01-28T16:47:32.324Z,20.34
2024-01-28T16:52:33.625Z,20.27
2024-01-28T16:57:35.339Z,20.60
2024-01-28T17:02:36.653Z,20.67
2024-01-28T17:07:37.948Z,20.69
2024-01-28T17:12:39.274Z,20.80
2024-01-28T17:17:41.056Z,20.92
2024-01-28T17:22:42.452Z,20.82
2024-01-28T17:27:43.793Z,20.87
2024-01-28T17:32:45.357Z,20.76
2024-01-28T17:37:46.934Z,20.94
2024-01-28T17:42:48.348Z,20.73
2024-01-28T17:47:49.738Z,20.94
2024-01-28T17:52:55.031Z,20.80
2024-01-28T17:57:56.517Z,20.93
2024-01-28T18:02:58.090Z,21.09
2024-01-28T18:07:59.442Z,21.21
2024-01-28T18:13:00.744Z,21.14
2024-01-28T18:18:03.186Z,21.31
2024-01-28T18:23:06.193Z,21.08
2024-01-28T18:28:07.549Z,21.18
2024-01-28T18:33:09.228Z,21.04
2024-01-28T18:38:11.490Z,21.03
2024-01-28T18:43:12.929Z,21.22
2024-01-28T18:48:18.578Z,21.25
2024-01-28T18:53:22.940Z,21.19
2024-01-28T18:58:24.605Z,21.27
2024-01-28T19:03:25.968Z,21.36
2024-01-28T19:08:27.317Z,21.46
2024-01-28T19:13:28.832Z,21.33
2024-01-28T19:18:31.728Z,21.31
2024-01-28T19:23:33.098Z,21.59
2024-01-28T19:28:35.224Z,21.62
2024-01-28T19:33:36.759Z,21.71
2024-01-28T19:38:38.158Z,21.72
2024-01-28T19:43:39.440Z,21.67
2024-01-28T19:48:40.934Z,21.87
2024-01-28T19:53:43.425Z,21.76
2024-01-28T19:58:44.920Z,21.60
2024-01-28T20:03:46.314Z,21.92
2024-01-28T20:08:47.675Z,21.86
2024-01-28T20:13:49.679Z,21.85
2024-01-28T20:18:51.158Z,21.92
2024-01-28T20:23:52.669Z,21.92
2024-01-28T20:28:54.658Z,22.05
2024-01-28T20:33:56.086Z,21.86
2024-01-28T20:38:57.576Z,22.05
2024-01-28T20:43:58.942Z,22.03
2024-01-28T20:49:00.433Z,22.06
2024-01-28T20:54:01.872Z,22.03
2024-01-28T20:59:03.190Z,21.89
2024-01-28T21:04:04.581Z,21.93
2024-01-28T21:09:05.921Z,22.04
2024-01-28T21:14:07.329Z,21.94
2024-01-28T21:19:09.542Z,22.17
2024-01-28T21:24:11.617Z,21.93
2024-01-28T21:29:12.969Z,22.10
2024-01-28T21:34:14.505Z,22.07
2024-01-28T21:39:16.044Z,22.17
2024-01-28T21:44:17.489Z,22.26
2024-01-28T21:49:18.882Z,22.07
2024-01-28T21:54:20.261Z,21.92
2024-01-28T21:59:21.570Z,22.01
2024-01-28T22:04:22.980Z,22.20
2024-01-28T22:09:24.419Z,22.10
2024-01-28T22:14:25.735Z,22.22
2024-01-28T22:19:27.087Z,22.29
2024-01-28T22:24:28.422Z,22.42
2024-01-28T22:29:29.806Z,22.23
2024-01-28T22:34:32.124Z,22.47
2024-01-28T22:39:33.488Z,22.32
2024-01-28T22:44:34.868Z,22.12
2024-01-28T22:49:36.347Z,22.40
2024-01-28T22:54:37.898Z,22.36
2024-01-28T22:59:39.278Z,22.35
2024-01-28T23:04:40.747Z,22.21
2024-01-28T23:09:42.306Z,22.39
2024-01-28T23:14:43.653Z,22.16
2024-01-28T23:19:44.980Z,22.41
2024-01-28T23:24:46.319Z,22.30
2024-01-28T23:29:47.665Z,22.37
2024-01-28T23:34:49.155Z,22.35
2024-01-28T23:39:50.556Z,22.19
2024-01-28T23:44:51.854Z,22.20
2024-01-28T23:49:54.761Z,22.25
2024-01-28T23:54:57.207Z,22.17
2024-01-28T23:59:59.026Z,22.05
